Time;durP1;ratioP1;P1;durP2;ratioP2;P2;SDS_P1;SDS_P2;PMS_P1;PMS_P2;Temp;Humidity;BMP_temperature;BMP_pressure;BME280_temperature;BME280_humidity;BME280_pressure;Samples;Min_cycle;Max_cycle;Signal;HPM_P1;HPM_P2
2021/12/25 00:00:57;;;;;;;;;;;;;;;4.52;100.00;100569.38;5004076;28;19918;-73
2021/12/25 00:03:22;;;;;;;;;;;;;;;4.55;100.00;100574.59;5004205;28;20388;-70
2021/12/25 00:05:52;;;;;;;;;;;;;;;4.54;100.00;100572.84;5005450;28;19929;-71
2021/12/25 00:08:24;;;;;;;;;;;;;;;4.51;100.00;100565.09;5006030;28;20292;-73
2021/12/25 00:10:49;;;;;;;;;;;;;;;4.54;100.00;100570.31;5001920;28;19929;-73
2021/12/25 00:13:15;;;;;;;;;;;;;;;4.50;100.00;100561.66;5005146;28;19929;-72
2021/12/25 00:15:42;;;;;;;;;;;;;;;4.47;100.00;100563.19;5003820;28;19971;-73
2021/12/25 00:18:08;;;;;;;;;;;;;;;4.47;100.00;100553.00;5008898;28;19921;-73
2021/12/25 00:20:33;;;;;;;;;;;;;;;4.45;100.00;100555.47;4999387;28;19925;-72
2021/12/25 00:23:00;;;;;;;;;;;;;;;4.41;100.00;100552.72;5005027;28;19940;-71
2021/12/25 00:25:25;;;;;;;;;;;;;;;4.37;100.00;100553.34;4999476;28;19925;-74
2021/12/25 00:28:02;;;;;;;;;;;;;;;4.36;100.00;100564.34;5001048;28;19922;-73
2021/12/25 00:30:36;;;;;;;;;;;;;;;4.37;100.00;100566.09;5007373;28;19921;-72
2021/12/25 00:33:06;;;;;;;;;;;;;;;4.38;100.00;100555.13;5005769;28;19925;-72
2021/12/25 00:35:31;;;;;;;;;;;;;;;4.39;100.00;100559.41;5002909;28;19929;-73
2021/12/25 00:37:57;;;;;;;;;;;;;;;4.38;100.00;100557.66;5005576;28;19917;-73
2021/12/25 00:40:22;;;;;;;;;;;;;;;4.39;100.00;100562.81;5006349;28;19929;-72
2021/12/25 00:42:47;;;;;;;;;;;;;;;4.38;100.00;100552.59;5004356;28;19925;-72
2021/12/25 00:45:13;;;;;;;;;;;;;;;4.35;100.00;100549.88;5004736;28;20380;-73
2021/12/25 00:47:38;;;;;;;;;;;;;;;4.35;100.00;100552.41;5003404;28;19972;-72
2021/12/25 00:50:04;;;;;;;;;;;;;;;4.31;100.00;100553.97;5006813;28;19921;-72
2021/12/25 00:52:29;;;;;;;;;;;;;;;4.26;100.00;100553.72;5003284;28;19930;-72
2021/12/25 00:54:55;;;;;;;;;;;;;;;4.27;100.00;100559.69;5006461;28;20546;-72
2021/12/25 00:57:20;;;;;;;;;;;;;;;4.21;100.00;100556.84;5004047;28;20048;-72
2021/12/25 00:59:45;;;;;;;;;;;;;;;4.19;100.00;100556.78;5002009;28;19929;-71
2021/12/25 01:02:10;;;;;;;;;;;;;;;4.17;100.00;100552.41;5002153;28;19932;-72
2021/12/25 01:04:36;;;;;;;;;;;;;;;4.14;100.00;100555.69;5005255;28;19965;-71
2021/12/25 01:07:01;;;;;;;;;;;;;;;4.13;100.00;100559.03;5005513;28;20372;-72
2021/12/25 01:09:26;;;;;;;;;;;;;;;4.12;100.00;100559.81;5005398;28;20372;-71
2021/12/25 01:11:52;;;;;;;;;;;;;;;4.14;100.00;100558.22;5003150;28;20424;-72
2021/12/25 01:19:49;;;;;;;;;;;;;;;4.10;100.00;100565.63;5002321;28;19936;-72
2021/12/25 01:29:55;;;;;;;;;;;;;;;4.18;100.00;100562.66;5002100;28;19988;-72
2021/12/25 01:40:28;;;;;;;;;;;;;;;4.15;100.00;100557.44;5005284;28;19936;-73
2021/12/25 01:48:15;;;;;;;;;;;;;;;4.11;100.00;100562.28;5002599;28;19925;-72
2021/12/25 01:50:40;;;;;;;;;;;;;;;4.11;100.00;100563.16;5000597;28;20300;-73
2021/12/25 01:53:05;;;;;;;;;;;;;;;4.11;100.00;100554.66;5001179;28;20392;-72
2021/12/25 01:55:31;;;;;;;;;;;;;;;4.12;100.00;100562.34;5002746;28;19917;-72
2021/12/25 01:57:58;;;;;;;;;;;;;;;4.11;100.00;100552.09;5003394;28;19976;-72
2021/12/25 02:00:28;;;;;;;;;;;;;;;4.10;100.00;100556.31;5001579;28;19976;-73
2021/12/25 02:02:54;;;;;;;;;;;;;;;4.11;100.00;100552.09;4999997;28;20012;-71
2021/12/25 02:05:19;;;;;;;;;;;;;;;4.13;100.00;100551.41;5005434;28;20080;-72
2021/12/25 02:07:45;;;;;;;;;;;;;;;4.10;100.00;100551.22;4998872;28;20427;-72
2021/12/25 02:10:11;;;;;;;;;;;;;;;4.15;100.00;100543.84;5003065;28;19972;-73
2021/12/25 02:12:36;;;;;;;;;;;;;;;4.10;100.00;100553.78;5003791;28;20012;-71
2021/12/25 02:15:08;;;;;;;;;;;;;;;4.07;100.00;100548.56;5002120;28;20326;-71
2021/12/25 02:20:28;;;;;;;;;;;;;;;4.02;100.00;100553.41;4999910;28;19921;-73
2021/12/25 02:23:00;;;;;;;;;;;;;;;4.00;100.00;100554.13;5003516;28;19949;-72
2021/12/25 02:25:26;;;;;;;;;;;;;;;4.00;100.00;100557.56;5000813;28;19926;-73
2021/12/25 02:27:51;;;;;;;;;;;;;;;3.94;100.00;100553.81;4997984;28;19917;-73
2021/12/25 02:30:16;;;;;;;;;;;;;;;3.89;100.00;100557.81;5003944;28;20020;-72
2021/12/25 02:32:44;;;;;;;;;;;;;;;3.83;100.00;100560.94;5001685;28;20353;-72
2021/12/25 02:35:10;;;;;;;;;;;;;;;3.76;100.00;100566.47;4999321;28;20346;-70
2021/12/25 02:37:35;;;;;;;;;;;;;;;3.74;100.00;100565.53;5001354;28;20020;-71
2021/12/25 02:40:01;;;;;;;;;;;;;;;3.61;100.00;100560.63;5002005;28;20008;-72
2021/12/25 02:42:26;;;;;;;;;;;;;;;3.59;100.00;100547.84;5002579;28;20328;-71
2021/12/25 02:44:51;;;;;;;;;;;;;;;3.46;100.00;100560.75;5002265;28;20008;-71
2021/12/25 02:47:20;;;;;;;;;;;;;;;3.38;100.00;100569.63;5003213;28;19928;-70
2021/12/25 02:49:46;;;;;;;;;;;;;;;3.29;100.00;100574.25;5003320;28;19968;-72
2021/12/25 02:52:11;;;;;;;;;;;;;;;3.28;100.00;100568.28;5001379;28;19918;-73
2021/12/25 02:54:37;;;;;;;;;;;;;;;3.23;100.00;100564.63;5003947;28;20388;-72
2021/12/25 02:57:02;;;;;;;;;;;;;;;3.11;100.00;100575.00;5004328;28;19929;-71
2021/12/25 02:59:27;;;;;;;;;;;;;;;3.07;100.00;100573.09;5002045;28;20369;-73
2021/12/25 03:01:53;;;;;;;;;;;;;;;3.07;100.00;100582.38;5001581;28;19917;-72
2021/12/25 03:04:18;;;;;;;;;;;;;;;3.00;100.00;100572.69;5003472;28;20376;-71
2021/12/25 03:06:43;;;;;;;;;;;;;;;2.91;100.00;100581.56;5003947;28;19965;-71
2021/12/25 03:09:08;;;;;;;;;;;;;;;2.89;100.00;100585.69;5001015;28;19933;-71
2021/12/25 03:11:34;;;;;;;;;;;;;;;2.86;100.00;100590.59;5004115;28;19933;-71
2021/12/25 03:14:12;;;;;;;;;;;;;;;2.87;100.00;100589.81;4998296;28;19928;-71
2021/12/25 03:16:37;;;;;;;;;;;;;;;2.87;100.00;100588.94;5003846;28;20395;-71
2021/12/25 03:19:04;;;;;;;;;;;;;;;2.84;100.00;100586.22;5001628;28;19925;-71
2021/12/25 03:21:29;;;;;;;;;;;;;;;2.75;100.00;100585.72;5002389;28;19960;-73
2021/12/25 03:23:55;;;;;;;;;;;;;;;2.80;100.00;100586.88;5001666;28;20334;-72
2021/12/25 03:26:20;;;;;;;;;;;;;;;2.71;100.00;100597.38;5002107;28;19983;-73
2021/12/25 03:28:46;;;;;;;;;;;;;;;2.67;100.00;100591.28;5003673;28;20476;-72
2021/12/25 03:31:16;;;;;;;;;;;;;;;2.59;100.00;100600.09;5004872;28;19925;-72
2021/12/25 03:33:42;;;;;;;;;;;;;;;2.56;100.00;100596.53;5002943;28;19976;-73
2021/12/25 03:36:08;;;;;;;;;;;;;;;2.56;100.00;100597.41;4997539;28;19925;-74
2021/12/25 03:38:33;;;;;;;;;;;;;;;2.53;100.00;100609.03;5005315;28;19965;-72
2021/12/25 03:41:00;;;;;;;;;;;;;;;2.49;100.00;100604.56;5005927;28;19927;-73
2021/12/25 03:43:25;;;;;;;;;;;;;;;2.40;100.00;100608.34;5004907;28;20287;-74
2021/12/25 03:45:51;;;;;;;;;;;;;;;2.37;100.00;100610.72;5004967;28;19918;-73
2021/12/25 03:48:42;;;;;;;;;;;;;;;2.29;100.00;100611.94;5005374;28;19921;-72
2021/12/25 03:59:02;;;;;;;;;;;;;;;2.12;100.00;100611.00;5005777;28;19924;-74
2021/12/25 04:04:11;;;;;;;;;;;;;;;2.15;100.00;100623.84;5004976;28;19929;-71
2021/12/25 04:06:44;;;;;;;;;;;;;;;2.10;100.00;100620.16;5007098;28;19918;-73
2021/12/25 04:09:20;;;;;;;;;;;;;;;2.11;100.00;100624.44;5005193;28;19965;-72
2021/12/25 04:11:45;;;;;;;;;;;;;;;2.02;100.00;100629.00;5006852;28;19917;-74
2021/12/25 04:14:11;;;;;;;;;;;;;;;1.98;100.00;100628.72;5005152;28;20016;-73
2021/12/25 04:16:37;;;;;;;;;;;;;;;1.86;100.00;100634.81;5002877;28;19999;-72
2021/12/25 04:19:02;;;;;;;;;;;;;;;1.79;100.00;100641.97;5005991;28;19935;-72
2021/12/25 04:21:28;;;;;;;;;;;;;;;1.78;100.00;100645.31;5001580;28;19925;-73
2021/12/25 04:23:53;;;;;;;;;;;;;;;1.74;100.00;100656.03;5005245;28;19925;-71
2021/12/25 04:26:21;;;;;;;;;;;;;;;1.72;100.00;100644.94;5003277;28;19929;-72
2021/12/25 04:29:05;;;;;;;;;;;;;;;1.67;100.00;100649.72;5002400;28;19925;-72
2021/12/25 04:32:07;;;;;;;;;;;;;;;1.68;100.00;100654.00;5007262;28;20382;-72
2021/12/25 05:06:44;;;;;;;;;;;;;;;1.18;100.00;100689.81;5003579;28;19929;-72
2021/12/25 05:09:10;;;;;;;;;;;;;;;1.16;100.00;100686.31;5006723;28;20356;-72
2021/12/25 05:11:35;;;;;;;;;;;;;;;1.08;100.00;100688.34;5002837;28;20331;-72
2021/12/25 05:14:00;;;;;;;;;;;;;;;1.00;100.00;100689.53;5004364;28;19926;-72
2021/12/25 05:16:26;;;;;;;;;;;;;;;0.99;100.00;100689.44;5002962;28;19960;-72
2021/12/25 05:18:52;;;;;;;;;;;;;;;0.94;100.00;100685.72;5005154;28;20733;-73
2021/12/25 05:21:18;;;;;;;;;;;;;;;0.91;100.00;100688.94;5004931;28;20569;-73
2021/12/25 05:23:44;;;;;;;;;;;;;;;0.88;100.00;100703.94;5005137;28;19926;-71
2021/12/25 05:26:09;;;;;;;;;;;;;;;0.86;100.00;100691.97;5004092;28;19925;-72
2021/12/25 05:28:43;;;;;;;;;;;;;;;0.80;100.00;100695.84;5004469;28;19921;-73
2021/12/25 05:31:10;;;;;;;;;;;;;;;0.83;100.00;100700.22;5001431;28;19936;-72
2021/12/25 05:33:36;;;;;;;;;;;;;;;0.79;100.00;100706.75;5002673;28;19968;-72
2021/12/25 05:36:01;;;;;;;;;;;;;;;0.79;100.00;100713.47;5001492;28;19967;-71
2021/12/25 05:38:27;;;;;;;;;;;;;;;0.78;100.00;100704.97;5001288;28;20268;-72
2021/12/25 05:40:52;;;;;;;;;;;;;;;0.69;100.00;100716.19;5000252;28;19929;-73
2021/12/25 05:43:17;;;;;;;;;;;;;;;0.69;100.00;100733.91;5005879;28;20004;-71
2021/12/25 05:45:43;;;;;;;;;;;;;;;0.59;100.00;100721.41;5003608;28;19918;-72
2021/12/25 05:48:09;;;;;;;;;;;;;;;0.48;100.00;100721.59;4998693;28;19932;-71
2021/12/25 05:50:35;;;;;;;;;;;;;;;0.44;100.00;100724.72;5004047;28;19922;-71
2021/12/25 05:53:00;;;;;;;;;;;;;;;0.35;100.00;100728.25;5005627;28;19934;-71
2021/12/25 05:55:25;;;;;;;;;;;;;;;0.36;100.00;100712.31;5004704;28;20296;-71
2021/12/25 05:57:51;;;;;;;;;;;;;;;0.32;100.00;100725.56;5003124;28;19953;-71
2021/12/25 06:00:18;;;;;;;;;;;;;;;0.25;100.00;100724.28;5003307;28;19999;-72
2021/12/25 06:02:44;;;;;;;;;;;;;;;0.23;100.00;100724.13;5002447;28;20280;-72
2021/12/25 06:05:10;;;;;;;;;;;;;;;0.25;100.00;100731.84;5003127;28;20004;-72
2021/12/25 06:07:35;;;;;;;;;;;;;;;0.23;100.00;100729.19;5006905;28;19996;-72
2021/12/25 06:10:00;;;;;;;;;;;;;;;0.26;100.00;100737.00;5005259;28;19953;-72
2021/12/25 06:12:27;;;;;;;;;;;;;;;0.29;100.00;100732.91;5004240;28;20013;-72
2021/12/25 06:14:54;;;;;;;;;;;;;;;0.31;100.00;100741.50;5002641;28;20395;-72
2021/12/25 06:17:19;;;;;;;;;;;;;;;0.31;100.00;100742.38;5004950;28;19922;-72
2021/12/25 06:19:44;;;;;;;;;;;;;;;0.29;100.00;100737.97;5000640;28;19933;-72
2021/12/25 06:22:09;;;;;;;;;;;;;;;0.23;100.00;100743.50;5004182;28;19929;-72
2021/12/25 06:24:35;;;;;;;;;;;;;;;0.24;100.00;100740.19;5004701;28;19929;-71
2021/12/25 06:27:00;;;;;;;;;;;;;;;0.16;100.00;100748.91;5000794;28;19928;-72
2021/12/25 06:29:26;;;;;;;;;;;;;;;0.20;100.00;100745.84;5003316;28;20286;-72
2021/12/25 06:31:52;;;;;;;;;;;;;;;0.23;100.00;100748.56;5003624;28;20388;-72
2021/12/25 06:34:18;;;;;;;;;;;;;;;0.18;100.00;100752.41;5004049;28;19944;-72
2021/12/25 06:36:43;;;;;;;;;;;;;;;0.15;100.00;100762.34;4999588;28;19921;-73
2021/12/25 06:39:13;;;;;;;;;;;;;;;0.15;100.00;100753.09;5002805;28;19940;-72
2021/12/25 06:41:39;;;;;;;;;;;;;;;0.13;100.00;100757.19;5003629;28;19925;-73
2021/12/25 06:44:04;;;;;;;;;;;;;;;0.12;100.00;100750.38;5005883;28;19932;-72
2021/12/25 06:46:29;;;;;;;;;;;;;;;0.13;100.00;100757.19;5000562;28;19925;-72
2021/12/25 06:48:55;;;;;;;;;;;;;;;0.14;100.00;100765.66;5002860;28;19929;-73
2021/12/25 06:51:20;;;;;;;;;;;;;;;0.10;100.00;100762.03;5003322;28;20372;-72
2021/12/25 06:53:46;;;;;;;;;;;;;;;0.11;100.00;100767.97;5002533;28;19926;-73
2021/12/25 06:56:11;;;;;;;;;;;;;;;0.10;100.00;100768.72;5003617;28;19921;-72
2021/12/25 06:58:37;;;;;;;;;;;;;;;0.08;100.00;100768.63;4998753;28;20296;-72
2021/12/25 07:01:02;;;;;;;;;;;;;;;0.08;100.00;100762.72;5003141;28;20281;-72
2021/12/25 07:03:27;;;;;;;;;;;;;;;0.03;100.00;100757.34;5001373;28;19941;-72
2021/12/25 07:05:53;;;;;;;;;;;;;;;-0.04;100.00;100772.84;5001414;28;20384;-72
2021/12/25 07:08:18;;;;;;;;;;;;;;;-0.03;100.00;100775.47;5003572;28;19960;-70
2021/12/25 07:10:43;;;;;;;;;;;;;;;-0.11;100.00;100778.28;5002268;28;19968;-70
2021/12/25 07:13:16;;;;;;;;;;;;;;;-0.15;100.00;100786.41;5002347;28;20372;-71
2021/12/25 07:15:41;;;;;;;;;;;;;;;-0.17;100.00;100785.44;5003263;28;19928;-73
2021/12/25 07:18:06;;;;;;;;;;;;;;;-0.27;100.00;100788.94;5001986;28;19921;-71
2021/12/25 07:20:31;;;;;;;;;;;;;;;-0.32;100.00;100796.19;4989666;28;19957;-71
2021/12/25 07:22:57;;;;;;;;;;;;;;;-0.38;100.00;100802.47;5007641;28;19930;-70
2021/12/25 07:25:24;;;;;;;;;;;;;;;-0.37;100.00;100801.69;5006899;28;20291;-72
2021/12/25 07:27:49;;;;;;;;;;;;;;;-0.40;100.00;100802.38;5008971;28;20028;-73
2021/12/25 07:30:15;;;;;;;;;;;;;;;-0.38;100.00;100810.06;5008684;28;19921;-72
2021/12/25 07:32:40;;;;;;;;;;;;;;;-0.39;100.00;100814.22;5008484;28;19925;-70
2021/12/25 07:35:05;;;;;;;;;;;;;;;-0.35;100.00;100817.88;5009046;28;19957;-70
2021/12/25 07:37:31;;;;;;;;;;;;;;;-0.45;100.00;100818.84;5010697;28;19952;-71
2021/12/25 07:39:56;;;;;;;;;;;;;;;-0.47;100.00;100827.09;5008720;28;20051;-71
2021/12/25 07:42:21;;;;;;;;;;;;;;;-0.56;100.00;100814.69;5005166;28;19921;-71
2021/12/25 07:44:53;;;;;;;;;;;;;;;-0.56;100.00;100818.06;5006473;28;19930;-71
2021/12/25 07:47:21;;;;;;;;;;;;;;;-0.65;100.00;100822.50;5004399;28;19980;-72
2021/12/25 07:49:46;;;;;;;;;;;;;;;-0.70;100.00;100821.28;5008440;28;20373;-72
2021/12/25 07:52:12;;;;;;;;;;;;;;;-0.76;100.00;100819.97;5003224;28;19972;-72
2021/12/25 07:54:37;;;;;;;;;;;;;;;-0.81;100.00;100827.19;5004966;28;20335;-71
2021/12/25 07:57:03;;;;;;;;;;;;;;;-0.84;100.00;100834.56;5006099;28;19921;-72
2021/12/25 07:59:28;;;;;;;;;;;;;;;-0.85;100.00;100830.25;5005298;28;19933;-72
2021/12/25 08:01:54;;;;;;;;;;;;;;;-0.86;100.00;100833.53;5000818;28;20348;-70
2021/12/25 08:04:21;;;;;;;;;;;;;;;-0.86;100.00;100836.94;5002926;28;19925;-71
2021/12/25 08:06:46;;;;;;;;;;;;;;;-0.87;100.00;100832.66;5007843;28;20031;-71
2021/12/25 08:09:12;;;;;;;;;;;;;;;-0.91;100.00;100853.44;5007476;28;20054;-71
2021/12/25 08:11:37;;;;;;;;;;;;;;;-0.93;100.00;100859.13;5005977;28;20341;-72
2021/12/25 08:14:02;;;;;;;;;;;;;;;-0.92;100.00;100849.13;5005844;28;19937;-72
2021/12/25 08:16:28;;;;;;;;;;;;;;;-0.93;100.00;100847.38;5002778;28;19976;-71
2021/12/25 08:18:53;;;;;;;;;;;;;;;-0.99;100.00;100846.91;5006498;28;20389;-73
2021/12/25 08:21:19;;;;;;;;;;;;;;;-0.98;100.00;100845.28;5003303;28;20368;-72
2021/12/25 08:23:44;;;;;;;;;;;;;;;-0.96;100.00;100851.34;5005252;28;19937;-72
2021/12/25 08:26:09;;;;;;;;;;;;;;;-0.98;100.00;100852.84;5004320;28;19933;-71
2021/12/25 08:28:35;;;;;;;;;;;;;;;-0.99;100.00;100864.59;5007078;28;20384;-71
2021/12/25 08:31:00;;;;;;;;;;;;;;;-0.96;100.00;100863.94;5009657;28;19929;-70
2021/12/25 08:33:26;;;;;;;;;;;;;;;-0.97;100.00;100874.78;5008257;28;20304;-72
2021/12/25 08:35:51;;;;;;;;;;;;;;;-0.99;100.00;100881.38;5009507;28;19917;-71
2021/12/25 08:38:17;;;;;;;;;;;;;;;-1.00;100.00;100879.63;5008778;28;19922;-72
2021/12/25 08:40:43;;;;;;;;;;;;;;;-1.04;100.00;100887.72;5008187;28;19932;-71
2021/12/25 08:43:08;;;;;;;;;;;;;;;-1.07;100.00;100880.81;5009709;28;20422;-71
2021/12/25 08:48:08;;;;;;;;;;;;;;;-0.99;100.00;100894.88;5008603;28;20367;-70
2021/12/25 08:50:33;;;;;;;;;;;;;;;-1.04;100.00;100895.28;5007407;28;20640;-70
2021/12/25 08:52:58;;;;;;;;;;;;;;;-1.02;100.00;100902.22;5009689;28;19992;-71
2021/12/25 08:55:24;;;;;;;;;;;;;;;-1.05;100.00;100891.91;5006901;28;19925;-72
2021/12/25 08:57:50;;;;;;;;;;;;;;;-1.10;100.00;100894.06;5006173;28;20016;-71
2021/12/25 09:00:15;;;;;;;;;;;;;;;-1.05;100.00;100903.63;5003102;28;19964;-70
2021/12/25 09:02:41;;;;;;;;;;;;;;;-1.07;100.00;100898.47;5002469;28;20045;-72
2021/12/25 09:05:06;;;;;;;;;;;;;;;-0.99;100.00;100919.25;5003370;28;19961;-71
2021/12/25 09:07:32;;;;;;;;;;;;;;;-1.08;100.00;100910.22;5007651;28;20338;-72
2021/12/25 09:09:57;;;;;;;;;;;;;;;-1.06;100.00;100967.50;5007351;28;20447;-71
2021/12/25 09:12:24;;;;;;;;;;;;;;;-1.08;100.00;100915.28;5005008;28;20423;-71
2021/12/25 09:14:49;;;;;;;;;;;;;;;-1.07;100.00;100926.25;5003849;28;19959;-70
2021/12/25 09:17:15;;;;;;;;;;;;;;;-1.04;100.00;100920.53;5002031;28;19968;-70
2021/12/25 09:19:41;;;;;;;;;;;;;;;-1.06;100.00;100922.94;5004927;28;20269;-70
2021/12/25 09:22:07;;;;;;;;;;;;;;;-1.06;100.00;100919.56;5003377;28;19963;-72
2021/12/25 09:24:34;;;;;;;;;;;;;;;-1.05;100.00;100928.88;4999791;28;19918;-70
2021/12/25 09:26:59;;;;;;;;;;;;;;;-1.04;100.00;100923.06;5003774;28;19925;-69
2021/12/25 09:29:24;;;;;;;;;;;;;;;-1.04;100.00;100915.47;5008441;28;19941;-68
2021/12/25 09:31:49;;;;;;;;;;;;;;;-1.07;100.00;100918.69;5006301;28;19927;-68
2021/12/25 09:34:15;;;;;;;;;;;;;;;-1.09;100.00;100918.56;5009744;28;19933;-69
2021/12/25 09:36:40;;;;;;;;;;;;;;;-1.10;100.00;100919.31;5009791;28;20363;-68
2021/12/25 09:39:06;;;;;;;;;;;;;;;-1.08;100.00;100912.75;5007651;28;20719;-71
2021/12/25 09:41:33;;;;;;;;;;;;;;;-1.16;100.00;100925.53;5010463;28;19917;-69
2021/12/25 09:43:58;;;;;;;;;;;;;;;-1.18;100.00;100917.84;5009419;28;19913;-69
2021/12/25 09:46:24;;;;;;;;;;;;;;;-1.17;100.00;100927.19;5006143;28;19921;-68
2021/12/25 09:48:52;;;;;;;;;;;;;;;-1.17;100.00;100922.13;5008165;28;20033;-70
2021/12/25 09:51:18;;;;;;;;;;;;;;;-1.15;100.00;100918.09;5008174;28;19932;-70
2021/12/25 09:53:53;;;;;;;;;;;;;;;-1.18;100.00;100917.84;5009473;28;19971;-69
2021/12/25 09:56:19;;;;;;;;;;;;;;;-1.17;100.00;100923.78;5007707;28;19921;-70
2021/12/25 09:58:46;;;;;;;;;;;;;;;-1.17;100.00;100916.22;5005997;28;19940;-68
2021/12/25 10:01:11;;;;;;;;;;;;;;;-1.15;100.00;100922.28;5009585;28;19922;-71
2021/12/25 10:03:45;;;;;;;;;;;;;;;-1.13;100.00;100929.19;5009750;28;19975;-70
2021/12/25 10:06:26;;;;;;;;;;;;;;;-1.13;100.00;100934.22;5010528;28;20287;-69
2021/12/25 10:08:51;;;;;;;;;;;;;;;-1.17;100.00;100941.44;5006999;28;19918;-72
2021/12/25 10:11:18;;;;;;;;;;;;;;;-1.20;100.00;100933.66;5008081;28;19929;-71
2021/12/25 10:13:44;;;;;;;;;;;;;;;-1.21;100.00;100947.91;5009906;28;19925;-68
2021/12/25 10:16:30;;;;;;;;;;;;;;;-1.24;99.94;100957.75;5008005;28;19918;-69
2021/12/25 10:19:12;;;;;;;;;;;;;;;-1.30;100.00;100954.78;5006405;28;19925;-67
2021/12/25 10:21:37;;;;;;;;;;;;;;;-1.27;99.99;100959.19;5008785;28;19924;-69
2021/12/25 10:24:04;;;;;;;;;;;;;;;-1.26;100.00;100954.25;5009829;28;19921;-68
2021/12/25 10:26:30;;;;;;;;;;;;;;;-1.28;99.64;100952.34;5005349;28;19921;-69
2021/12/25 10:28:55;;;;;;;;;;;;;;;-1.33;98.99;100944.47;5007999;28;20254;-70
2021/12/25 10:31:28;;;;;;;;;;;;;;;-1.31;99.74;100953.03;5007828;28;20380;-71
2021/12/25 10:33:54;;;;;;;;;;;;;;;-1.25;99.81;100953.50;5009900;28;20589;-68
2021/12/25 10:36:26;;;;;;;;;;;;;;;-1.19;98.72;100948.03;5009132;28;19925;-72
2021/12/25 10:39:06;;;;;;;;;;;;;;;-1.14;97.41;100962.75;5008926;28;19924;-68
2021/12/25 10:41:35;;;;;;;;;;;;;;;-1.15;97.27;100950.03;5006557;28;19925;-69
2021/12/25 10:44:21;;;;;;;;;;;;;;;-1.10;98.44;100954.63;5005443;28;19936;-68
2021/12/25 10:46:46;;;;;;;;;;;;;;;-1.00;97.25;100947.78;5005831;28;19921;-71
2021/12/25 10:49:12;;;;;;;;;;;;;;;-1.00;96.72;100950.28;5009056;28;19918;-69
2021/12/25 10:51:37;;;;;;;;;;;;;;;-0.96;96.65;100954.81;5006351;28;19928;-69
2021/12/25 10:54:03;;;;;;;;;;;;;;;-0.90;97.27;100950.22;5009700;28;19921;-69
2021/12/25 10:56:36;;;;;;;;;;;;;;;-0.77;96.57;100947.84;5007637;28;19921;-71
2021/12/25 10:59:03;;;;;;;;;;;;;;;-0.78;94.72;100947.75;5007545;28;19924;-68
2021/12/25 11:01:36;;;;;;;;;;;;;;;-0.81;94.18;100948.38;5009050;28;19925;-67
2021/12/25 11:04:01;;;;;;;;;;;;;;;-0.83;95.42;100944.88;5008487;28;20482;-71
2021/12/25 11:06:26;;;;;;;;;;;;;;;-0.84;94.77;100954.09;5007445;28;19921;-68
2021/12/25 11:08:52;;;;;;;;;;;;;;;-0.77;93.80;100947.84;5008964;28;19917;-69
2021/12/25 11:11:18;;;;;;;;;;;;;;;-0.66;94.07;100947.00;5007862;28;20036;-68
2021/12/25 11:13:43;;;;;;;;;;;;;;;-0.44;93.91;100944.38;5008171;28;19967;-68
2021/12/25 11:16:12;;;;;;;;;;;;;;;-0.25;93.48;100936.47;5007744;28;20018;-71
2021/12/25 11:19:05;;;;;;;;;;;;;;;-0.01;91.92;100939.88;5006466;28;20360;-71
2021/12/25 11:21:35;;;;;;;;;;;;;;;0.75;94.06;100936.78;5008051;28;19988;-69
2021/12/25 11:24:03;;;;;;;;;;;;;;;1.89;86.29;100943.50;5006944;28;19929;-70
2021/12/25 11:26:29;;;;;;;;;;;;;;;2.37;85.59;100934.66;5008314;28;19926;-68
2021/12/25 11:28:54;;;;;;;;;;;;;;;2.46;77.92;100945.38;5007962;28;20425;-68
2021/12/25 11:31:19;;;;;;;;;;;;;;;2.59;79.00;100941.91;5007314;28;19968;-68
2021/12/25 11:33:45;;;;;;;;;;;;;;;2.59;79.67;100941.91;5007573;28;19933;-69
2021/12/25 11:36:10;;;;;;;;;;;;;;;2.35;79.86;100942.16;5008450;28;20003;-67
2021/12/25 11:38:35;;;;;;;;;;;;;;;2.18;79.86;100939.34;5007147;28;19921;-70
2021/12/25 11:41:05;;;;;;;;;;;;;;;1.74;81.36;100939.97;5007097;28;20308;-69
2021/12/25 11:43:35;;;;;;;;;;;;;;;1.35;82.69;100931.53;5007875;28;19933;-69
2021/12/25 11:46:05;;;;;;;;;;;;;;;0.97;83.41;100923.91;5009111;28;19926;-67
2021/12/25 11:48:30;;;;;;;;;;;;;;;0.59;84.31;100921.31;5006726;28;19926;-69
2021/12/25 11:50:55;;;;;;;;;;;;;;;0.38;86.99;100928.31;5007916;28;20506;-68
2021/12/25 11:53:31;;;;;;;;;;;;;;;0.37;88.26;100927.44;5007729;28;19972;-70
2021/12/25 11:58:53;;;;;;;;;;;;;;;0.34;86.57;100916.22;5004263;28;19925;-68
2021/12/25 12:01:18;;;;;;;;;;;;;;;0.30;87.73;100919.28;5008020;28;19914;-68
2021/12/25 12:03:46;;;;;;;;;;;;;;;0.30;85.64;100922.69;5011957;28;19948;-67
2021/12/25 12:06:13;;;;;;;;;;;;;;;0.25;86.55;100917.34;5011123;28;19933;-68
2021/12/25 12:08:53;;;;;;;;;;;;;;;0.24;85.70;100914.69;5006997;28;20008;-70
2021/12/25 12:11:23;;;;;;;;;;;;;;;0.18;85.70;100925.28;5008006;28;20257;-68
2021/12/25 12:14:08;;;;;;;;;;;;;;;0.17;84.36;100922.63;5008805;28;20324;-70
2021/12/25 12:16:37;;;;;;;;;;;;;;;0.07;84.18;100927.81;5010535;28;19922;-68
2021/12/25 12:19:03;;;;;;;;;;;;;;;0.08;86.04;100930.44;5011543;28;19917;-67
2021/12/25 12:21:34;;;;;;;;;;;;;;;0.13;85.75;100923.19;5010289;28;19925;-68
2021/12/25 12:24:27;;;;;;;;;;;;;;;0.15;85.94;100921.63;5010932;28;20369;-68
2021/12/25 12:26:53;;;;;;;;;;;;;;;0.17;86.44;100936.13;5007650;28;19972;-69
2021/12/25 12:29:37;;;;;;;;;;;;;;;0.26;86.38;100920.75;5007534;28;20388;-69
2021/12/25 12:32:02;;;;;;;;;;;;;;;0.35;84.19;100912.91;5001119;28;19956;-69
2021/12/25 12:34:35;;;;;;;;;;;;;;;0.30;84.61;100905.00;5010338;28;19925;-68
2021/12/25 12:37:16;;;;;;;;;;;;;;;0.38;84.49;100905.53;5008848;28;19921;-68
2021/12/25 12:39:44;;;;;;;;;;;;;;;0.46;83.37;100889.22;5006995;28;19921;-69
2021/12/25 12:42:13;;;;;;;;;;;;;;;0.45;81.81;100903.53;5008953;28;19964;-68
2021/12/25 12:44:38;;;;;;;;;;;;;;;0.34;82.49;100893.44;5007463;28;20016;-69
2021/12/25 12:47:11;;;;;;;;;;;;;;;0.38;82.33;100903.00;5006255;28;20403;-68
2021/12/25 12:49:49;;;;;;;;;;;;;;;0.34;84.12;100894.31;5005905;28;19925;-68
2021/12/25 12:52:17;;;;;;;;;;;;;;;0.39;83.46;100895.53;5002503;28;20004;-70
2021/12/25 12:54:52;;;;;;;;;;;;;;;0.50;82.58;100892.09;5004349;28;19930;-70
2021/12/25 12:57:22;;;;;;;;;;;;;;;0.53;83.85;100897.34;5006721;28;19926;-70
2021/12/25 12:59:55;;;;;;;;;;;;;;;0.53;82.51;100899.88;5008729;28;19925;-70
2021/12/25 13:02:22;;;;;;;;;;;;;;;0.49;81.32;100899.59;5006948;28;19933;-68
2021/12/25 13:04:49;;;;;;;;;;;;;;;0.50;80.86;100897.16;5008581;28;20408;-68
2021/12/25 13:07:16;;;;;;;;;;;;;;;0.43;80.61;100892.44;5010564;28;20366;-68
2021/12/25 13:09:46;;;;;;;;;;;;;;;0.35;80.46;100890.16;5008160;28;19967;-69
2021/12/25 13:12:26;;;;;;;;;;;;;;;0.36;81.81;100894.41;4999988;28;19925;-69
2021/12/25 13:14:58;;;;;;;;;;;;;;;0.39;79.82;100905.66;5005342;28;19968;-70
2021/12/25 13:17:24;;;;;;;;;;;;;;;0.36;79.56;100891.91;5006925;28;20296;-68
2021/12/25 13:19:49;;;;;;;;;;;;;;;0.24;81.35;100902.03;4998705;28;19930;-67
2021/12/25 13:22:14;;;;;;;;;;;;;;;0.30;80.65;100910.06;5002704;28;20052;-67
2021/12/25 13:24:40;;;;;;;;;;;;;;;0.30;80.56;100909.16;5005369;28;19921;-69
2021/12/25 13:27:05;;;;;;;;;;;;;;;0.31;80.92;100905.91;4984600;28;19987;-71
2021/12/25 13:29:31;;;;;;;;;;;;;;;0.29;80.65;100909.94;5005429;28;20363;-71
2021/12/25 13:31:59;;;;;;;;;;;;;;;0.27;81.00;100907.31;5005101;28;20410;-70
2021/12/25 13:34:25;;;;;;;;;;;;;;;0.34;79.76;100911.16;5000556;28;19928;-68
2021/12/25 13:36:52;;;;;;;;;;;;;;;0.33;78.67;100911.94;5003750;28;19925;-69
2021/12/25 13:39:19;;;;;;;;;;;;;;;0.31;80.26;100924.47;5001794;28;19917;-69
2021/12/25 13:41:49;;;;;;;;;;;;;;;0.34;78.98;100909.50;5003975;28;20399;-71
2021/12/25 13:44:27;;;;;;;;;;;;;;;0.35;78.12;100939.06;5001978;28;20392;-70
2021/12/25 13:46:59;;;;;;;;;;;;;;;0.29;79.30;100925.13;5006702;28;20352;-68
2021/12/25 13:49:25;;;;;;;;;;;;;;;0.31;79.05;100910.97;5009376;28;20542;-69
2021/12/25 13:51:50;;;;;;;;;;;;;;;0.35;78.39;100915.44;5009370;28;19925;-69
2021/12/25 13:54:20;;;;;;;;;;;;;;;0.29;78.89;100905.78;5008239;28;19931;-68